Time;durP1;ratioP1;P1;durP2;ratioP2;P2;SDS_P1;SDS_P2;PMS_P1;PMS_P2;Temp;Humidity;BMP_temperature;BMP_pressure;BME280_temperature;BME280_humidity;BME280_pressure;Samples;Min_cycle;Max_cycle;Signal;HPM_P1;HPM_P2
2021/07/06 00:01:41;;;;;;;9.60;6.57;;;;;;;20.79;76.25;99658.91;6224272;28;20100;-60
2021/07/06 00:04:42;;;;;;;13.20;6.10;;;;;;;20.95;74.65;99655.41;6223958;28;20497;-59
2021/07/06 00:07:43;;;;;;;9.57;5.77;;;;;;;21.01;75.73;99654.72;6225073;28;20044;-59
2021/07/06 00:10:44;;;;;;;11.43;6.40;;;;;;;20.98;76.23;99662.19;6224859;28;20275;-59
2021/07/06 00:13:44;;;;;;;10.13;6.63;;;;;;;20.94;77.77;99653.75;6223693;28;20396;-59
2021/07/06 00:16:45;;;;;;;9.93;6.50;;;;;;;20.91;76.22;99659.38;6240219;28;20064;-59
2021/07/06 00:19:47;;;;;;;14.43;7.17;;;;;;;20.83;76.74;99659.41;6224832;28;20045;-59
2021/07/06 00:22:48;;;;;;;9.52;7.20;;;;;;;20.80;77.40;99663.22;6224901;28;20551;-60
2021/07/06 00:25:49;;;;;;;9.03;7.03;;;;;;;20.89;76.06;99651.59;6240012;28;20041;-59
2021/07/06 00:28:50;;;;;;;15.50;8.17;;;;;;;20.82;76.47;99655.94;6224815;28;20079;-59
2021/07/06 00:31:51;;;;;;;13.27;7.30;;;;;;;20.82;76.61;99655.13;6224648;28;20072;-60
2021/07/06 00:34:51;;;;;;;12.13;7.53;;;;;;;20.75;75.75;99660.25;6224433;28;20341;-59
2021/07/06 00:37:52;;;;;;;18.20;7.30;;;;;;;20.71;76.31;99661.56;6223270;28;20477;-59
2021/07/06 00:40:54;;;;;;;13.73;7.70;;;;;;;20.69;77.27;99655.63;6206812;28;20042;-59
2021/07/06 00:43:55;;;;;;;14.50;7.22;;;;;;;20.70;76.67;99658.09;6223298;28;20065;-59
2021/07/06 00:46:56;;;;;;;15.32;7.38;;;;;;;20.67;77.43;99658.47;6239364;28;20489;-59
2021/07/06 00:49:57;;;;;;;18.93;7.80;;;;;;;20.67;76.66;99662.91;6222957;28;20049;-59
2021/07/06 00:52:58;;;;;;;16.60;7.83;;;;;;;20.68;76.81;99660.09;6222682;28;20046;-59
2021/07/06 00:55:59;;;;;;;12.60;7.73;;;;;;;20.65;77.87;99654.28;6224049;28;20046;-59
2021/07/06 00:59:00;;;;;;;13.50;6.95;;;;;;;20.67;77.05;99661.09;6222802;28;20053;-59
2021/07/06 01:02:01;;;;;;;9.10;7.20;;;;;;;20.72;75.42;99666.72;6222609;28;20041;-59
2021/07/06 01:05:03;;;;;;;15.00;7.10;;;;;;;20.75;75.80;99667.38;6206195;28;20065;-60
2021/07/06 01:08:06;;;;;;;9.85;6.70;;;;;;;20.72;76.30;99665.91;6223809;28;20045;-59
2021/07/06 01:11:07;;;;;;;10.88;6.38;;;;;;;20.69;77.09;99661.75;6223517;28;20444;-60
2021/07/06 01:14:08;;;;;;;11.35;6.63;;;;;;;20.76;76.06;99661.09;6222514;28;20044;-60
2021/07/06 01:17:09;;;;;;;11.30;6.80;;;;;;;20.73;75.31;99663.09;6223621;28;20038;-59
2021/07/06 01:20:16;;;;;;;9.80;6.53;;;;;;;20.59;76.94;99665.56;6223522;28;20046;-59
2021/07/06 01:23:23;;;;;;;10.63;7.78;;;;;;;20.44;78.06;99655.63;6238347;28;20050;-59
2021/07/06 01:26:24;;;;;;;9.18;7.97;;;;;;;20.45;77.70;99659.94;6223156;28;20042;-60
2021/07/06 01:29:25;;;;;;;;;;;;;;;20.42;78.98;99656.78;6223881;28;20053;-59
2021/07/06 01:32:26;;;;;;;13.73;8.88;;;;;;;20.27;79.56;99661.94;6223077;28;20295;-60
2021/07/06 01:35:27;;;;;;;10.57;8.00;;;;;;;20.35;78.49;99655.81;6222102;28;20052;-60
2021/07/06 01:38:28;;;;;;;13.70;9.45;;;;;;;20.31;78.98;99663.25;6221827;28;20053;-60
2021/07/06 01:41:29;;;;;;;13.33;8.97;;;;;;;20.22;80.91;99662.44;6238137;28;20053;-60
2021/07/06 01:44:30;;;;;;;13.43;9.20;;;;;;;20.21;80.05;99658.13;6223032;28;20088;-59
2021/07/06 01:47:30;;;;;;;12.00;8.60;;;;;;;20.18;79.63;99660.25;6221736;28;20100;-59
2021/07/06 01:50:36;;;;;;;13.57;8.33;;;;;;;20.12;80.36;99659.13;6222821;28;20500;-60
2021/07/06 01:53:37;;;;;;;11.65;8.98;;;;;;;20.10;79.89;99661.09;6221528;28;20127;-59
2021/07/06 01:56:41;;;;;;;11.70;8.33;;;;;;;20.10;79.89;99658.47;6221641;28;20068;-60
2021/07/06 01:59:41;;;;;;;14.98;8.43;;;;;;;20.10;78.88;99664.56;6222581;28;20496;-59
2021/07/06 02:02:43;;;;;;;12.73;8.07;;;;;;;20.08;78.37;99669.22;6222348;28;20073;-59
2021/07/06 02:05:46;;;;;;;14.18;8.48;;;;;;;20.06;80.06;99665.06;6221375;28;20050;-59
2021/07/06 02:08:47;;;;;;;13.00;7.95;;;;;;;20.12;77.54;99681.13;6222377;28;20037;-59
2021/07/06 02:11:48;;;;;;;11.97;8.17;;;;;;;20.11;78.61;99679.44;6221003;28;20057;-59
2021/07/06 02:14:48;;;;;;;16.57;8.27;;;;;;;20.13;77.67;99677.47;6222340;28;20042;-59
2021/07/06 02:17:51;;;;;;;17.00;8.63;;;;;;;20.08;77.77;99677.16;6237677;28;20507;-59
2021/07/06 02:20:55;;;;;;;13.90;7.93;;;;;;;20.05;77.10;99679.28;6222080;28;20049;-59
2021/07/06 02:23:56;;;;;;;10.82;8.05;;;;;;;20.04;79.90;99682.94;6222347;28;20049;-60
2021/07/06 02:26:58;;;;;;;13.47;7.27;;;;;;;19.93;79.28;99678.78;6220860;28;20042;-59
2021/07/06 02:29:59;;;;;;;11.27;7.72;;;;;;;19.88;80.40;99684.56;6222160;28;20057;-59
2021/07/06 02:33:00;;;;;;;9.27;7.70;;;;;;;19.91;78.82;99688.69;6220699;28;20065;-59
2021/07/06 02:36:04;;;;;;;8.80;7.57;;;;;;;19.83;81.60;99696.63;6220805;28;20048;-59
2021/07/06 02:39:05;;;;;;;10.80;7.57;;;;;;;19.75;81.72;99688.66;6220692;28;20042;-59
2021/07/06 02:42:05;;;;;;;11.73;7.53;;;;;;;19.68;80.70;99686.66;6220659;28;20045;-59
2021/07/06 02:45:09;;;;;;;14.33;7.00;;;;;;;19.71;81.54;99691.66;6220728;28;20053;-60
2021/07/06 02:48:10;;;;;;;10.85;7.10;;;;;;;19.70;79.89;99691.75;6221691;28;20125;-59
2021/07/06 02:51:14;;;;;;;10.73;7.60;;;;;;;19.70;80.19;99689.13;6221914;28;20594;-59
2021/07/06 02:54:15;;;;;;;10.82;6.90;;;;;;;19.77;80.20;99691.97;6204534;28;20129;-59
2021/07/06 02:57:37;;;;;;;14.33;7.57;;;;;;;19.71;79.81;99690.81;6221616;28;20049;-59
2021/07/06 03:00:37;;;;;;;10.90;7.13;;;;;;;19.79;79.32;99695.28;6220291;28;20050;-59
2021/07/06 03:03:37;;;;;;;15.63;7.77;;;;;;;19.74;80.62;99695.78;6220235;28;20065;-60
2021/07/06 03:06:38;;;;;;;13.20;7.67;;;;;;;19.60;81.31;99702.50;6220460;28;20514;-59
2021/07/06 03:09:39;;;;;;;12.83;7.77;;;;;;;19.67;80.63;99702.69;6220433;28;20046;-59
2021/07/06 03:12:41;;;;;;;13.37;7.03;;;;;;;19.68;80.40;99699.03;6221456;28;20042;-59
2021/07/06 03:15:42;;;;;;;10.80;7.10;;;;;;;19.69;81.73;99706.81;6221554;28;20040;-59
2021/07/06 03:18:43;;;;;;;7.77;6.60;;;;;;;19.78;80.06;99713.00;6220335;28;20038;-59
2021/07/06 03:21:44;;;;;;;11.33;7.13;;;;;;;19.72;81.19;99706.53;6221617;28;20484;-59
2021/07/06 03:24:45;;;;;;;10.57;7.53;;;;;;;19.79;81.68;99708.53;6221619;28;20060;-59
2021/07/06 03:27:46;;;;;;;14.10;7.23;;;;;;;19.77;81.70;99710.50;6220089;28;20053;-60
2021/07/06 03:30:47;;;;;;;12.23;7.27;;;;;;;19.76;82.57;99722.91;6220225;28;20096;-59
2021/07/06 03:33:47;;;;;;;10.17;7.93;;;;;;;19.71;82.52;99720.75;6220971;28;20046;-60
2021/07/06 03:36:48;;;;;;;12.23;7.87;;;;;;;19.75;83.46;99721.28;6227213;28;20099;-60
2021/07/06 03:39:49;;;;;;;8.50;7.60;;;;;;;19.73;84.39;99718.78;6245727;28;20053;-60
2021/07/06 03:42:51;;;;;;;11.80;8.00;;;;;;;19.73;83.89;99720.59;6245803;28;20045;-60
2021/07/06 03:45:51;;;;;;;10.20;8.05;;;;;;;19.81;84.04;99722.44;6245554;28;20443;-59
2021/07/06 03:48:52;;;;;;;9.30;8.13;;;;;;;19.80;86.01;99731.38;6232650;28;20056;-59
2021/07/06 03:51:53;;;;;;;13.40;8.77;;;;;;;19.89;83.36;99733.88;6249974;28;20091;-59
2021/07/06 03:54:54;;;;;;;12.15;8.38;;;;;;;19.97;84.05;99741.00;6250024;28;20072;-59
2021/07/06 03:57:55;;;;;;;11.57;8.50;;;;;;;20.00;83.20;99739.88;6233725;28;20038;-60
2021/07/06 04:00:56;;;;;;;12.68;8.27;;;;;;;20.06;83.63;99745.34;6225307;28;20409;-60
2021/07/06 04:03:57;;;;;;;14.00;8.97;;;;;;;20.07;85.10;99749.63;6225076;28;20053;-60
2021/07/06 04:06:58;;;;;;;13.13;8.40;;;;;;;20.11;83.97;99758.09;6225174;28;20117;-60
2021/07/06 04:09:58;;;;;;;11.97;8.30;;;;;;;20.16;83.47;99754.94;6225211;28;20038;-60
2021/07/06 04:13:00;;;;;;;;;;;;;;;20.20;83.55;99759.78;6225399;28;20050;-60
2021/07/06 04:16:01;;;;;;;12.65;9.00;;;;;;;20.26;nan;99766.22;6223968;28;19929;-59
2021/07/06 04:19:02;;;;;;;10.57;8.43;;;;;;;20.27;84.44;99765.25;6249061;28;20052;-60
2021/07/06 04:22:04;;;;;;;13.30;9.05;;;;;;;20.29;84.55;99776.50;6249322;28;20492;-59
2021/07/06 04:25:06;;;;;;;13.52;8.95;;;;;;;20.32;84.42;99777.03;6249394;28;20420;-59
2021/07/06 04:28:07;;;;;;;15.80;8.90;;;;;;;20.40;84.22;99783.31;6249130;28;20045;-59
2021/07/06 04:31:08;;;;;;;12.30;9.13;;;;;;;20.48;84.18;99778.00;6248022;28;20118;-60
2021/07/06 04:34:09;;;;;;;14.55;8.88;;;;;;;20.56;83.98;99785.16;6247829;28;20065;-59
2021/07/06 04:37:11;;;;;;;16.47;10.37;;;;;;;20.62;84.79;99787.16;6247982;28;20033;-59
2021/07/06 04:40:12;;;;;;;11.73;8.30;;;;;;;20.62;84.48;99788.00;6247661;28;20407;-59
2021/07/06 04:43:13;;;;;;;11.93;8.93;;;;;;;20.66;85.59;99789.31;6248864;28;20091;-59
2021/07/06 04:46:13;;;;;;;10.50;8.63;;;;;;;20.70;85.21;99790.66;6248869;28;20084;-60
2021/07/06 04:49:14;;;;;;;12.30;8.57;;;;;;;20.73;84.13;99786.84;6248756;28;20455;-59
2021/07/06 04:52:18;;;;;;;11.37;9.03;;;;;;;20.78;85.00;99789.81;6247453;28;20045;-60
2021/07/06 04:55:19;;;;;;;10.98;8.60;;;;;;;20.86;85.72;99783.69;6247618;28;20141;-59
2021/07/06 04:58:20;;;;;;;14.75;8.80;;;;;;;20.86;84.79;99787.16;6248241;28;20423;-60
2021/07/06 05:01:22;;;;;;;11.80;9.60;;;;;;;20.94;85.17;99796.97;6248450;28;20048;-59
2021/07/06 05:04:22;;;;;;;;;;;;;;;20.99;82.91;99799.91;6247530;28;20502;-59
2021/07/06 05:07:23;;;;;;;10.27;7.97;;;;;;;21.07;83.81;99801.75;6247234;28;19921;-60
2021/07/06 05:10:24;;;;;;;11.07;8.30;;;;;;;21.14;84.62;99805.38;6247080;28;20050;-59
2021/07/06 05:13:25;;;;;;;10.87;8.33;;;;;;;21.25;83.54;99801.53;6231852;28;20407;-62
2021/07/06 05:16:25;;;;;;;11.80;7.53;;;;;;;21.30;83.76;99797.38;6223677;28;20042;-62
2021/07/06 05:19:26;;;;;;;12.80;8.13;;;;;;;21.34;85.69;99800.53;6223650;28;20041;-62
2021/07/06 05:22:27;;;;;;;10.07;7.60;;;;;;;21.40;85.78;99797.19;6241577;28;20056;-62
2021/07/06 05:25:27;;;;;;;11.37;7.70;;;;;;;21.46;81.63;99801.03;6246860;28;20069;-62
2021/07/06 05:28:29;;;;;;;10.40;7.60;;;;;;;21.53;81.82;99802.81;6247984;28;20086;-62
2021/07/06 05:31:30;;;;;;;10.10;7.68;;;;;;;21.59;83.85;99809.28;6247245;28;20116;-62
2021/07/06 05:34:31;;;;;;;13.52;7.70;;;;;;;21.66;84.56;99807.59;6247727;28;20045;-62
2021/07/06 05:37:33;;;;;;;14.57;7.57;;;;;;;21.71;81.81;99812.41;6247799;28;20080;-62
2021/07/06 05:40:39;;;;;;;;;;;;;;;21.78;82.95;99813.34;6230440;28;20045;-63
2021/07/06 05:43:42;;;;;;;9.02;6.60;;;;;;;21.89;80.18;99812.16;6228849;28;19929;-62
2021/07/06 05:46:43;;;;;;;9.38;6.68;;;;;;;21.92;79.71;99811.81;6236156;28;20373;-62
2021/07/06 05:49:44;;;;;;;12.70;7.33;;;;;;;22.07;80.12;99812.75;6247347;28;20046;-62
2021/07/06 05:52:45;;;;;;;9.00;7.27;;;;;;;22.10;79.38;99812.38;6223463;28;20336;-61
2021/07/06 05:55:46;;;;;;;10.60;6.80;;;;;;;22.11;79.49;99816.72;6221511;28;20115;-62
2021/07/06 05:58:47;;;;;;;9.17;6.93;;;;;;;22.22;80.89;99819.97;6222745;28;20054;-62
2021/07/06 06:01:47;;;;;;;9.73;6.90;;;;;;;22.26;79.05;99830.09;6221582;28;20077;-62
2021/07/06 06:04:48;;;;;;;13.33;7.17;;;;;;;22.33;78.42;99836.38;6229520;28;20049;-63
2021/07/06 06:07:49;;;;;;;10.63;7.03;;;;;;;22.35;80.16;99830.88;6245756;28;20041;-62
2021/07/06 06:10:50;;;;;;;9.03;6.60;;;;;;;22.40;77.58;99833.81;6246901;28;20401;-64
2021/07/06 06:13:51;;;;;;;10.30;6.67;;;;;;;22.45;78.59;99835.97;6246660;28;20044;-63
2021/07/06 06:16:51;;;;;;;11.73;7.20;;;;;;;22.50;78.07;99841.56;6241308;28;20117;-64
2021/07/06 06:19:52;;;;;;;8.47;6.50;;;;;;;22.55;77.90;99836.56;6222170;28;20504;-64
2021/07/06 06:22:53;;;;;;;11.00;6.90;;;;;;;22.66;76.62;99832.66;6215008;28;20382;-63
2021/07/06 06:25:55;;;;;;;10.37;6.80;;;;;;;22.73;79.54;99831.78;6246602;28;20038;-63
2021/07/06 06:28:56;;;;;;;10.70;7.03;;;;;;;22.79;75.22;99837.38;6245349;28;20072;-63
2021/07/06 06:31:57;;;;;;;11.98;6.68;;;;;;;22.87;77.48;99829.34;6245309;28;20064;-61
2021/07/06 06:34:58;;;;;;;11.73;6.70;;;;;;;23.06;75.06;99828.03;6216217;28;20054;-62
2021/07/06 06:37:58;;;;;;;8.60;6.00;;;;;;;23.10;74.14;99834.66;6222027;28;20489;-62
2021/07/06 06:40:59;;;;;;;9.50;6.37;;;;;;;23.20;74.70;99835.22;6222166;28;20488;-62
2021/07/06 06:44:00;;;;;;;7.27;6.17;;;;;;;23.30;74.26;99834.97;6241342;28;20132;-62
2021/07/06 06:47:01;;;;;;;14.73;6.87;;;;;;;23.36;75.87;99831.59;6246495;28;20050;-62
2021/07/06 06:50:04;;;;;;;7.47;6.57;;;;;;;23.48;73.53;99832.78;6241848;28;20138;-62
2021/07/06 06:53:05;;;;;;;10.57;6.15;;;;;;;23.51;75.08;99837.75;6228762;28;20046;-62
2021/07/06 06:56:06;;;;;;;11.43;6.10;;;;;;;23.65;68.78;99830.75;6221935;28;20448;-62
2021/07/06 06:59:08;;;;;;;9.20;6.27;;;;;;;23.98;67.58;99833.06;6222109;28;20058;-62
2021/07/06 07:02:17;;;;;;;;;;;;;;;24.08;67.45;99838.94;6238803;28;20045;-62
2021/07/06 07:05:18;;;;;;;9.35;5.50;;;;;;;24.06;65.51;99848.13;6252534;28;19921;-61
2021/07/06 07:08:20;;;;;;;11.03;5.90;;;;;;;24.04;67.36;99840.31;6221104;28;20058;-62
2021/07/06 07:11:21;;;;;;;;;;;;;;;24.04;66.85;99850.97;6222068;28;20037;-62
2021/07/06 07:14:21;;;;;;;8.13;6.03;;;;;;;24.03;67.83;99844.00;6223932;28;19975;-62
2021/07/06 07:17:23;;;;;;;6.17;5.50;;;;;;;24.06;68.98;99848.13;6246182;28;20129;-62
2021/07/06 07:20:24;;;;;;;8.48;5.95;;;;;;;24.22;68.47;99844.44;6227018;28;20374;-62
2021/07/06 07:23:24;;;;;;;12.00;5.70;;;;;;;24.26;64.17;99841.19;6247309;28;20049;-62
2021/07/06 07:26:25;;;;;;;8.98;5.45;;;;;;;24.35;65.08;99844.56;6247450;28;20334;-62
2021/07/06 07:29:26;;;;;;;8.77;6.13;;;;;;;24.47;66.52;99844.91;6249210;28;20518;-60
2021/07/06 07:32:27;;;;;;;8.38;5.72;;;;;;;24.39;65.33;99853.84;6250561;28;20068;-60
2021/07/06 07:35:28;;;;;;;7.83;5.77;;;;;;;24.48;67.75;99858.06;6244591;28;20041;-60
2021/07/06 07:38:29;;;;;;;6.50;5.43;;;;;;;24.56;63.84;99854.47;6224738;28;20356;-60
2021/07/06 07:41:29;;;;;;;6.13;5.00;;;;;;;24.81;65.15;99859.41;6225756;28;20041;-63
2021/07/06 07:44:31;;;;;;;8.47;5.33;;;;;;;24.98;57.16;99855.50;6224506;28;20357;-63
2021/07/06 07:47:32;;;;;;;7.65;4.75;;;;;;;25.26;55.40;99860.03;6208412;28;20108;-63
2021/07/06 07:50:32;;;;;;;6.35;4.68;;;;;;;25.39;57.02;99854.81;6224308;28;20057;-63
2021/07/06 07:53:33;;;;;;;7.97;4.82;;;;;;;25.12;58.65;99867.06;6224080;28;20050;-63
2021/07/06 07:56:34;;;;;;;11.13;4.90;;;;;;;25.23;59.52;99868.44;6225274;28;20487;-63
2021/07/06 07:59:35;;;;;;;6.50;4.63;;;;;;;25.07;57.88;99875.66;6224303;28;20409;-63
2021/07/06 08:02:36;;;;;;;;;;;;;;;25.06;59.23;99868.69;6225377;28;20130;-63
2021/07/06 08:05:37;;;;;;;8.13;4.87;;;;;;;25.19;58.28;99875.97;6223964;28;19921;-63
2021/07/06 08:08:38;;;;;;;7.28;4.80;;;;;;;25.14;59.63;99873.06;6224983;28;20398;-63
2021/07/06 08:11:38;;;;;;;6.30;4.47;;;;;;;25.42;56.46;99870.44;6224914;28;20113;-63
2021/07/06 08:14:41;;;;;;;7.77;5.00;;;;;;;25.54;54.68;99866.19;6223777;28;20045;-63
2021/07/06 08:17:42;;;;;;;6.28;4.80;;;;;;;25.54;58.36;99865.38;6224965;28;20100;-63
2021/07/06 08:20:43;;;;;;;5.30;4.43;;;;;;;25.48;55.74;99866.97;6224766;28;20042;-63
2021/07/06 08:23:44;;;;;;;7.40;4.88;;;;;;;25.38;58.57;99874.50;6224670;28;20096;-63
2021/07/06 08:26:46;;;;;;;6.43;4.63;;;;;;;25.33;57.08;99871.59;6224856;28;20046;-63
2021/07/06 08:29:46;;;;;;;5.45;4.50;;;;;;;25.70;52.36;99872.25;6224603;28;20038;-63
2021/07/06 08:32:47;;;;;;;8.77;4.50;;;;;;;25.87;53.88;99881.59;6224270;28;20062;-63
2021/07/06 08:35:48;;;;;;;6.10;4.88;;;;;;;25.79;52.95;99862.22;6223192;28;20045;-63
2021/07/06 08:38:49;;;;;;;8.02;4.80;;;;;;;25.76;55.30;99870.63;6223567;28;20068;-63
2021/07/06 08:41:50;;;;;;;5.55;4.97;;;;;;;25.82;53.41;99869.84;6224309;28;20049;-63
2021/07/06 08:44:51;;;;;;;6.00;4.35;;;;;;;25.85;53.35;99870.28;6224233;28;20049;-63
2021/07/06 08:47:53;;;;;;;9.48;5.28;;;;;;;25.81;56.02;99868.22;6222974;28;20092;-63
2021/07/06 08:50:54;;;;;;;5.25;4.63;;;;;;;25.75;57.25;99869.81;6223985;28;20065;-63
2021/07/06 08:53:55;;;;;;;6.55;4.28;;;;;;;25.66;52.29;99863.00;6222733;28;20049;-63
2021/07/06 08:56:56;;;;;;;8.52;4.68;;;;;;;25.58;51.71;99865.81;6222691;28;20038;-63
2021/07/06 08:59:57;;;;;;;5.60;4.35;;;;;;;25.65;53.69;99855.97;6206477;28;20076;-63
2021/07/06 09:03:01;;;;;;;8.23;4.07;;;;;;;25.75;53.90;99864.47;6238795;28;20504;-63
2021/07/06 09:06:10;;;;;;;7.07;4.18;;;;;;;25.84;54.64;99857.97;6223678;28;20276;-63
2021/07/06 09:09:19;;;;;;;8.50;4.50;;;;;;;25.97;55.85;99861.75;6223615;28;20073;-63
2021/07/06 09:12:33;;;;;;;7.93;4.60;;;;;;;26.20;50.47;99862.25;6223484;28;20397;-63
2021/07/06 09:15:34;;;;;;;7.32;4.45;;;;;;;26.08;52.68;99861.97;6222247;28;20076;-63
2021/07/06 09:18:34;;;;;;;7.60;4.80;;;;;;;26.07;52.67;99859.53;6222271;28;20060;-64
2021/07/06 09:21:35;;;;;;;5.50;4.53;;;;;;;26.03;51.46;99859.09;6223313;28;20065;-63
2021/07/06 09:24:36;;;;;;;5.10;4.60;;;;;;;26.05;50.41;99858.91;6223344;28;20045;-63
2021/07/06 09:27:39;;;;;;;6.00;4.57;;;;;;;25.97;50.92;99856.41;6223204;28;20042;-63
2021/07/06 09:30:43;;;;;;;7.10;4.25;;;;;;;26.01;53.36;99846.97;6223124;28;20472;-63
2021/07/06 09:33:48;;;;;;;7.07;4.30;;;;;;;26.07;50.89;99849.66;6223089;28;20124;-63
2021/07/06 09:36:50;;;;;;;8.27;5.20;;;;;;;26.19;50.33;99846.38;6221768;28;20045;-63
2021/07/06 09:39:50;;;;;;;9.23;4.70;;;;;;;26.21;50.04;99844.34;6238493;28;20073;-64
2021/07/06 09:43:18;;;;;;;5.18;4.65;;;;;;;26.26;51.37;99842.72;6229909;28;20099;-61
2021/07/06 09:46:23;;;;;;;8.27;4.78;;;;;;;26.55;48.44;99838.06;6238233;28;20487;-65
2021/07/06 09:49:30;;;;;;;5.60;4.30;;;;;;;26.69;49.92;99838.94;6232543;28;20073;-64
2021/07/06 09:52:35;;;;;;;5.32;4.47;;;;;;;26.83;48.73;99848.63;6222789;28;20042;-64
2021/07/06 09:55:37;;;;;;;9.43;4.88;;;;;;;26.78;47.47;99845.72;6221613;28;20057;-64
2021/07/06 09:59:05;;;;;;;5.60;4.65;;;;;;;26.73;46.00;99849.03;6222823;28;20503;-65
2021/07/06 10:02:09;;;;;;;5.32;4.35;;;;;;;26.81;48.47;99842.66;6221520;28;20054;-64
2021/07/06 10:05:20;;;;;;;6.03;4.70;;;;;;;27.13;47.73;99845.53;6205259;28;20058;-64
2021/07/06 10:08:21;;;;;;;6.07;4.60;;;;;;;27.04;47.12;99849.47;6221447;28;20092;-64
2021/07/06 10:11:22;;;;;;;6.50;4.38;;;;;;;27.02;46.81;99846.97;6221282;28;20045;-64
2021/07/06 10:14:24;;;;;;;6.10;4.93;;;;;;;27.19;48.29;99854.59;6221515;28;20054;-64
2021/07/06 10:17:25;;;;;;;;;;;;;;;27.21;48.77;99848.00;6205288;28;20041;-63
2021/07/06 10:20:28;;;;;;;8.23;4.30;;;;;;;27.20;47.99;99842.84;6222199;28;19964;-64
2021/07/06 10:23:29;;;;;;;5.85;4.35;;;;;;;27.24;46.14;99844.94;6220963;28;20046;-64
2021/07/06 10:26:31;;;;;;;5.05;4.55;;;;;;;27.42;43.91;99838.13;6221089;28;20108;-64
2021/07/06 10:29:34;;;;;;;14.15;4.97;;;;;;;27.62;43.67;99840.75;6221013;28;20104;-64
2021/07/06 10:32:40;;;;;;;4.32;3.92;;;;;;;27.56;47.33;99838.91;6230091;28;20041;-64
2021/07/06 10:35:41;;;;;;;4.53;3.90;;;;;;;27.89;45.09;99838.84;6246662;28;20037;-64
2021/07/06 10:38:56;;;;;;;6.00;4.47;;;;;;;27.80;49.21;99838.22;6245307;28;20046;-64
2021/07/06 10:41:58;;;;;;;4.97;4.47;;;;;;;27.70;47.58;99841.34;6245300;28;20400;-63
2021/07/06 10:45:24;;;;;;;4.35;3.95;;;;;;;27.88;46.92;99840.69;6246400;28;20064;-64
2021/07/06 10:48:46;;;;;;;5.25;4.30;;;;;;;27.81;46.32;99831.81;6245360;28;20049;-64
2021/07/06 10:51:51;;;;;;;10.00;4.57;;;;;;;27.80;45.87;99832.88;6246355;28;20084;-66
2021/07/06 10:54:51;;;;;;;5.30;4.30;;;;;;;27.98;42.62;99847.47;6246387;28;20041;-66
2021/07/06 10:57:52;;;;;;;5.60;4.32;;;;;;;28.21;44.94;99844.25;6250989;28;20049;-64
2021/07/06 11:00:53;;;;;;;8.40;4.47;;;;;;;28.03;50.25;99836.94;6251088;28;20041;-65
2021/07/06 11:03:54;;;;;;;5.28;4.65;;;;;;;28.07;47.47;99838.16;6250384;28;20049;-65
2021/07/06 11:06:55;;;;;;;5.32;3.88;;;;;;;28.01;45.19;99829.09;6249950;28;20400;-66
2021/07/06 11:09:55;;;;;;;7.32;4.10;;;;;;;28.10;44.96;99833.16;6227360;28;20057;-64
2021/07/06 11:13:11;;;;;;;10.23;4.10;;;;;;;28.32;46.40;99835.53;6229792;28;20060;-64
2021/07/06 11:16:35;;;;;;;4.80;4.30;;;;;;;28.51;45.04;99831.13;6226483;28;20042;-64
2021/07/06 11:19:37;;;;;;;6.22;4.13;;;;;;;28.63;47.86;99834.75;6226442;28;20451;-64
2021/07/06 11:22:54;;;;;;;5.80;4.32;;;;;;;28.73;43.65;99831.59;6226349;28;20049;-64
2021/07/06 11:26:04;;;;;;;8.75;4.28;;;;;;;29.01;43.70;99827.63;6226679;28;20046;-65
2021/07/06 11:29:05;;;;;;;6.68;4.13;;;;;;;29.13;45.14;99833.97;6226135;28;20073;-65
2021/07/06 11:32:12;;;;;;;15.70;4.95;;;;;;;29.23;41.66;99828.09;6225948;28;20301;-64
2021/07/06 11:35:13;;;;;;;6.82;3.88;;;;;;;29.52;40.24;99827.38;6226235;28;20473;-64
2021/07/06 11:38:20;;;;;;;4.50;4.10;;;;;;;29.81;40.77;99830.38;6226039;28;20046;-64
2021/07/06 11:41:23;;;;;;;7.45;4.18;;;;;;;29.98;40.14;99830.63;6226469;28;20464;-65
2021/07/06 11:44:24;;;;;;;5.95;4.00;;;;;;;30.31;38.16;99815.91;6241874;28;20469;-63
2021/07/06 11:47:26;;;;;;;4.45;4.05;;;;;;;31.44;36.47;99819.50;6224562;28;20048;-62
2021/07/06 11:50:27;;;;;;;6.97;3.90;;;;;;;33.23;35.26;99823.81;6240954;28;20046;-64
2021/07/06 11:53:29;;;;;;;;;;;;;;;34.67;28.85;99820.91;6241257;28;20054;-65
2021/07/06 11:56:32;;;;;;;6.03;3.65;;;;;;;35.16;28.73;99819.94;6238603;28;19928;-65
2021/07/06 11:59:35;;;;;;;7.60;3.60;;;;;;;32.97;31.84;99812.63;6248928;28;20276;-64
2021/07/06 12:02:36;;;;;;;4.30;3.40;;;;;;;35.00;28.75;99819.81;6248602;28;20416;-64
2021/07/06 12:05:36;;;;;;;5.50;3.70;;;;;;;32.17;33.51;99808.28;6248749;28;20124;-65
2021/07/06 12:08:48;;;;;;;6.50;3.47;;;;;;;32.89;33.60;99811.16;6249182;28;20049;-66
2021/07/06 12:11:49;;;;;;;3.75;3.10;;;;;;;32.79;32.81;99808.28;6248723;28;20104;-64
2021/07/06 12:14:51;;;;;;;3.55;3.25;;;;;;;32.68;30.33;99804.59;6248374;28;20041;-63
2021/07/06 12:17:51;;;;;;;3.97;3.50;;;;;;;32.12;36.32;99804.44;6249688;28;20420;-63
2021/07/06 12:20:58;;;;;;;5.45;3.45;;;;;;;31.78;35.28;99802.66;6248309;28;20041;-65
2021/07/06 12:24:05;;;;;;;3.80;3.40;;;;;;;31.26;35.34;99790.75;6249545;28;20095;-63
2021/07/06 12:27:07;;;;;;;4.78;3.58;;;;;;;31.22;34.72;99789.59;6249245;28;20403;-65
2021/07/06 12:30:14;;;;;;;6.10;3.58;;;;;;;31.16;34.84;99803.19;6249295;28;20049;-65
2021/07/06 12:33:15;;;;;;;3.78;3.17;;;;;;;31.12;35.63;99790.19;6249213;28;20042;-64
2021/07/06 12:36:26;;;;;;;;;;;;;;;31.20;35.78;99788.19;6249797;28;20053;-65
2021/07/06 12:39:36;;;;;;;5.65;3.65;;;;;;;31.01;35.88;99793.72;6229727;28;19921;-64
2021/07/06 12:42:39;;;;;;;4.70;3.70;;;;;;;31.15;37.18;99785.38;6223563;28;20045;-65
2021/07/06 12:45:40;;;;;;;5.70;4.00;;;;;;;30.99;40.63;99787.75;6223367;28;20042;-64
2021/07/06 12:48:45;;;;;;;;;;;;;;;30.97;35.69;99789.84;6239960;28;20511;-65
2021/07/06 12:52:06;;;;;;;6.05;3.63;;;;;;;31.04;35.27;99790.53;6224204;28;19928;-65
2021/07/06 12:55:22;;;;;;;5.78;4.03;;;;;;;30.72;36.68;99790.84;6224399;28;20137;-65
2021/07/06 12:58:25;;;;;;;6.15;3.60;;;;;;;30.93;37.45;99786.78;6224338;28;20193;-65
2021/07/06 13:01:33;;;;;;;6.63;3.63;;;;;;;30.91;36.61;99780.00;6224124;28;20108;-65
2021/07/06 13:04:57;;;;;;;6.95;3.92;;;;;;;31.08;35.30;99796.28;6223930;28;20065;-66
2021/07/06 13:07:59;;;;;;;6.18;4.00;;;;;;;31.15;34.81;99793.47;6223892;28;20042;-65
2021/07/06 13:11:05;;;;;;;5.63;3.72;;;;;;;30.97;36.56;99792.53;6224039;28;20038;-65
2021/07/06 13:14:21;;;;;;;5.43;3.70;;;;;;;30.82;36.42;99782.19;6223748;28;20038;-65
2021/07/06 13:17:24;;;;;;;5.38;3.78;;;;;;;30.93;35.23;99783.28;6223601;28;20081;-66
2021/07/06 13:20:26;;;;;;;5.00;3.40;;;;;;;30.92;35.75;99782.44;6238155;28;20046;-65
2021/07/06 13:23:27;;;;;;;5.95;3.80;;;;;;;30.78;38.53;99791.78;6223425;28;20050;-66
2021/07/06 13:26:28;;;;;;;;;;;;;;;30.82;38.18;99790.25;6239342;28;20595;-65
2021/07/06 13:29:29;;;;;;;4.50;3.50;;;;;;;30.75;36.05;99784.19;6222138;28;19983;-66
2021/07/06 13:32:30;;;;;;;;;;;;;;;30.92;37.07;99787.84;6223774;28;20038;-64
2021/07/06 13:35:32;;;;;;;5.30;3.97;;;;;;;30.85;36.38;99786.28;6223407;28;19921;-64
2021/07/06 13:38:33;;;;;;;6.25;3.70;;;;;;;30.76;38.56;99791.19;6223068;28;20050;-64
2021/07/06 13:41:33;;;;;;;;;;;;;;;30.88;37.38;99785.84;6222425;28;20046;-66
2021/07/06 13:44:37;;;;;;;4.15;3.70;;;;;;;30.89;35.63;99787.50;6223459;28;20312;-64
2021/07/06 13:47:38;;;;;;;5.07;3.60;;;;;;;30.96;35.70;99782.00;6223616;28;20042;-61
2021/07/06 13:50:39;;;;;;;5.57;3.50;;;;;;;30.98;37.03;99778.00;6238859;28;20148;-60
2021/07/06 13:53:39;;;;;;;7.63;3.88;;;;;;;30.72;38.10;99780.09;6223824;28;20053;-61
2021/07/06 13:56:40;;;;;;;7.20;3.55;;;;;;;30.52;37.35;99780.41;6222481;28;20045;-61
2021/07/06 13:59:41;;;;;;;4.65;3.88;;;;;;;30.53;37.04;99775.81;6223549;28;20053;-61
2021/07/06 14:02:42;;;;;;;;;;;;;;;30.36;39.08;99773.00;6224004;28;20060;-61
2021/07/06 14:05:46;;;;;;;7.57;3.60;;;;;;;29.97;38.50;99772.47;6223400;28;20386;-61
2021/07/06 14:08:47;;;;;;;7.22;4.10;;;;;;;29.99;36.38;99774.94;6205758;28;20477;-60
2021/07/06 14:11:48;;;;;;;5.15;4.00;;;;;;;29.68;40.74;99766.00;6222461;28;20104;-60
2021/07/06 14:14:50;;;;;;;6.22;3.33;;;;;;;29.62;38.26;99766.91;6205203;28;20057;-59
2021/07/06 14:17:50;;;;;;;5.13;4.13;;;;;;;29.45;38.14;99762.13;6222480;28;20042;-60
2021/07/06 14:20:51;;;;;;;5.40;4.35;;;;;;;29.28;40.81;99761.91;6221306;28;20041;-60